createdAt,value
2022-09-28T00:06:46.465Z,9.6
2022-09-28T00:21:17.469Z,9.5
2022-09-28T00:35:50.506Z,9.6
2022-09-28T00:50:21.585Z,9.5
2022-09-28T01:04:53.124Z,9.6
2022-09-28T01:19:23.928Z,9.4
2022-09-28T01:33:54.071Z,9.5
2022-09-28T01:48:25.388Z,9.3
2022-09-28T02:02:56.047Z,9.3
2022-09-28T02:17:26.468Z,9.4
2022-09-28T02:31:56.435Z,9.2
2022-09-28T02:46:27.563Z,9.2
2022-09-28T03:00:58.767Z,9.3
2022-09-28T03:15:31.143Z,9.3
2022-09-28T03:30:01.679Z,9.1
2022-09-28T03:44:32.765Z,9
2022-09-28T03:59:03.497Z,9.1
2022-09-28T04:13:34.833Z,9.3
2022-09-28T04:28:04.546Z,9
2022-09-28T04:42:36.013Z,9.3
2022-09-28T04:57:07.005Z,8.9
2022-09-28T05:11:39.005Z,9.3
2022-09-28T05:26:10.038Z,8.9
2022-09-28T05:40:48.117Z,9.1
2022-09-28T05:55:14.318Z,9.2
2022-09-28T06:09:50.428Z,9.2
2022-09-28T06:24:24.250Z,9.2
2022-09-28T06:38:58.418Z,9.3
2022-09-28T06:53:26.015Z,9.6
2022-09-28T07:07:56.681Z,9.5
2022-09-28T07:22:44.276Z,9.4
2022-09-28T07:37:06.256Z,9.6
2022-09-28T07:51:38.243Z,9.9
2022-09-28T08:06:10.327Z,9.9
2022-09-28T08:20:38.848Z,9.8
2022-09-28T08:35:09.024Z,9.8
2022-09-28T08:49:40.557Z,10.4
2022-09-28T09:04:13.272Z,10.4
2022-09-28T09:18:43.856Z,10.8
2022-09-28T09:33:14.957Z,10.3
2022-09-28T09:47:44.302Z,10.7
2022-09-28T10:02:16.012Z,10.5
2022-09-28T10:16:45.970Z,10.5
2022-09-28T10:31:16.605Z,10.4
2022-09-28T10:45:48.673Z,10.8
2022-09-28T11:00:19.747Z,10.8
2022-09-28T11:14:50.235Z,10.3
2022-09-28T11:29:23.099Z,10.6
2022-09-28T11:43:53.058Z,10.8
2022-09-28T11:58:25.681Z,11.1
2022-09-28T12:12:56.247Z,11
2022-09-28T12:27:28.989Z,11.3
2022-09-28T12:42:01.105Z,11.4
2022-09-28T12:56:30.337Z,11.5
2022-09-28T13:11:08.416Z,11.5
2022-09-28T13:25:36.160Z,11.8
2022-09-28T13:40:06.836Z,12
2022-09-28T13:54:47.701Z,12
2022-09-28T14:09:12.850Z,11.9
2022-09-28T14:23:44.213Z,12.2
2022-09-28T14:38:15.786Z,12
2022-09-28T14:52:47.331Z,12.1
2022-09-28T15:07:18.896Z,11.9
2022-09-28T15:21:49.304Z,11.7
2022-09-28T15:36:21.191Z,11.8
2022-09-28T15:50:52.446Z,11.8
2022-09-28T16:05:23.561Z,11.6
2022-09-28T16:19:53.735Z,11.3
2022-09-28T16:34:25.790Z,11.1
2022-09-28T16:48:56.966Z,11.3
2022-09-28T17:03:34.705Z,11.5
2022-09-28T17:18:08.525Z,11.2
2022-09-28T17:32:42.264Z,11.3
2022-09-28T17:47:15.573Z,10.4
2022-09-28T18:01:41.736Z,10
2022-09-28T18:16:12.847Z,9.9
2022-09-28T18:30:45.045Z,10.1
2022-09-28T18:45:22.057Z,10
2022-09-28T18:59:54.501Z,9.8
2022-09-28T19:14:21.499Z,9.8
2022-09-28T19:28:51.401Z,9.9
2022-09-28T19:43:22.623Z,9.7
2022-09-28T19:57:53.339Z,9.7
2022-09-28T20:12:23.759Z,9.7
2022-09-28T20:26:54.077Z,9.5
2022-09-28T20:41:25.367Z,9.4
2022-09-28T20:55:54.072Z,9
2022-09-28T21:10:25.863Z,8.8
2022-09-28T21:24:57.340Z,8.8
2022-09-28T21:39:29.207Z,8.8
2022-09-28T21:54:04.114Z,8.7
2022-09-28T22:08:33.137Z,8.8
2022-09-28T22:23:03.015Z,8.8
2022-09-28T22:37:32.148Z,8.7
2022-09-28T22:52:03.266Z,8.7
2022-09-28T23:06:32.860Z,8.7
2022-09-28T23:21:02.623Z,8.9
2022-09-28T23:35:33.809Z,8.8
2022-09-28T23:50:04.359Z,8.7
